Time;durP1;ratioP1;P1;durP2;ratioP2;P2;SDS_P1;SDS_P2;PMS_P1;PMS_P2;Temp;Humidity;BMP_temperature;BMP_pressure;BME280_temperature;BME280_humidity;BME280_pressure;Samples;Min_cycle;Max_cycle;Signal;HPM_P1;HPM_P2
2022/07/23 00:01:27;;;;;;;9.10;4.30;;;;;;;16.82;100.00;101828.72;5056326;28;20028;-51
2022/07/23 00:03:54;;;;;;;10.48;4.78;;;;;;;16.70;100.00;101828.28;5057118;28;20376;-49
2022/07/23 00:06:19;;;;;;;13.85;5.13;;;;;;;16.64;100.00;101831.69;5057210;28;20031;-49
2022/07/23 00:08:45;;;;;;;7.07;4.82;;;;;;;16.58;100.00;101840.47;5057264;28;20029;-50
2022/07/23 00:11:10;;;;;;;10.73;4.90;;;;;;;16.50;100.00;101837.84;5057262;28;20199;-51
2022/07/23 00:13:35;;;;;;;9.00;4.63;;;;;;;16.45;100.00;101840.22;5056067;28;20019;-50
2022/07/23 00:16:01;;;;;;;8.52;4.75;;;;;;;16.41;100.00;101837.88;5056809;28;20380;-49
2022/07/23 00:18:27;;;;;;;14.07;5.00;;;;;;;16.40;100.00;101835.34;5056674;28;20024;-49
2022/07/23 00:20:52;;;;;;;8.10;4.88;;;;;;;16.41;100.00;101834.31;5057537;28;20326;-50
2022/07/23 00:23:17;;;;;;;9.20;5.03;;;;;;;16.38;100.00;101830.13;5056757;28;20021;-49
2022/07/23 00:25:44;;;;;;;9.65;5.03;;;;;;;16.42;100.00;101826.03;5056877;28;20106;-50
2022/07/23 00:28:10;;;;;;;7.88;5.00;;;;;;;16.38;100.00;101823.91;5056742;28;20029;-50
2022/07/23 00:30:36;;;;;;;8.15;5.35;;;;;;;16.37;100.00;101823.03;5050277;28;20363;-50
2022/07/23 00:33:03;;;;;;;13.35;5.85;;;;;;;16.40;100.00;101829.94;5045959;28;20405;-50
2022/07/23 00:35:32;;;;;;;10.70;6.30;;;;;;;16.40;100.00;101827.25;5057057;28;20040;-48
2022/07/23 00:37:58;;;;;;;14.07;6.75;;;;;;;16.36;100.00;101829.47;5057492;28;20051;-48
2022/07/23 00:40:23;;;;;;;12.55;6.78;;;;;;;16.34;100.00;101831.47;5056099;28;20060;-51
2022/07/23 00:42:49;;;;;;;10.50;6.97;;;;;;;16.30;100.00;101827.47;5056447;28;20366;-51
2022/07/23 00:45:14;;;;;;;12.45;7.55;;;;;;;16.30;100.00;101823.94;5054388;28;20024;-51
2022/07/23 00:47:40;;;;;;;15.15;7.75;;;;;;;16.23;100.00;101821.91;5055822;28;20036;-49
2022/07/23 00:50:07;;;;;;;15.13;7.88;;;;;;;16.28;100.00;101824.09;5055655;28;20521;-50
2022/07/23 00:52:34;;;;;;;12.27;8.77;;;;;;;16.23;100.00;101831.88;5056729;28;20028;-49
2022/07/23 00:55:00;;;;;;;13.15;8.20;;;;;;;16.19;100.00;101827.81;5071997;28;20024;-49
2022/07/23 00:57:26;;;;;;;14.25;8.18;;;;;;;16.13;100.00;101813.19;5056587;28;20121;-50
2022/07/23 00:59:51;;;;;;;13.07;8.93;;;;;;;16.14;100.00;101822.97;5053415;28;20020;-51
2022/07/23 01:02:16;;;;;;;15.77;9.30;;;;;;;16.13;100.00;101820.47;5055881;28;20057;-49
2022/07/23 01:04:42;;;;;;;13.07;8.60;;;;;;;16.10;100.00;101818.94;5056178;28;20016;-51
2022/07/23 01:07:07;;;;;;;18.15;9.38;;;;;;;16.01;100.00;101815.44;5056434;28;20057;-50
2022/07/23 01:09:32;;;;;;;14.82;8.45;;;;;;;15.96;100.00;101817.81;5056799;28;20024;-50
2022/07/23 01:11:59;;;;;;;12.57;8.75;;;;;;;15.90;100.00;101815.78;5056832;28;20082;-51
2022/07/23 01:14:24;;;;;;;14.30;8.88;;;;;;;15.88;100.00;101812.44;5047153;28;20107;-51
2022/07/23 01:16:50;;;;;;;15.93;9.48;;;;;;;15.90;100.00;101818.47;5054460;28;20464;-49
2022/07/23 01:19:16;;;;;;;18.55;9.48;;;;;;;15.85;100.00;101815.47;5055731;28;20936;-48
2022/07/23 01:21:50;;;;;;;13.65;9.60;;;;;;;15.81;100.00;101816.84;5055509;28;20025;-51
2022/07/23 01:24:18;;;;;;;15.50;10.20;;;;;;;15.70;100.00;101818.00;5055132;28;20423;-50
2022/07/23 01:26:46;;;;;;;19.80;10.70;;;;;;;15.68;100.00;101806.56;5055728;28;20399;-49
2022/07/23 01:29:12;;;;;;;18.00;10.85;;;;;;;15.66;100.00;101814.81;5052620;28;20028;-49
2022/07/23 01:31:37;;;;;;;18.23;11.02;;;;;;;15.65;100.00;101810.44;5055413;28;20398;-51
2022/07/23 01:34:04;;;;;;;16.80;11.65;;;;;;;15.61;100.00;101803.72;5055201;28;20692;-49
2022/07/23 01:36:29;;;;;;;18.83;11.75;;;;;;;15.61;100.00;101803.72;5071673;28;20502;-50
2022/07/23 01:38:55;;;;;;;20.88;12.40;;;;;;;15.61;100.00;101798.34;5055238;28;20061;-49
2022/07/23 01:41:20;;;;;;;17.38;12.30;;;;;;;15.56;100.00;101800.69;5055249;28;20070;-50
2022/07/23 01:43:45;;;;;;;22.00;12.15;;;;;;;15.59;100.00;101811.13;5052729;28;20055;-51
2022/07/23 01:46:11;;;;;;;21.60;12.63;;;;;;;15.58;100.00;101806.75;5054732;28;20028;-51
2022/07/23 01:48:36;;;;;;;21.52;12.60;;;;;;;15.53;100.00;101805.56;5055323;28;20116;-47
2022/07/23 01:51:02;;;;;;;20.90;12.10;;;;;;;15.50;100.00;101804.06;5053824;28;20086;-50
2022/07/23 01:53:27;;;;;;;20.90;12.32;;;;;;;15.50;100.00;101804.06;5055045;28;20024;-47
2022/07/23 01:55:52;;;;;;;24.80;12.50;;;;;;;15.43;100.00;101803.06;5055408;28;20070;-50
2022/07/23 01:58:18;;;;;;;18.45;12.52;;;;;;;15.40;100.00;101795.34;5054822;28;20409;-48
2022/07/23 02:00:43;;;;;;;25.50;12.68;;;;;;;15.42;100.00;101801.38;5052243;28;20035;-50
2022/07/23 02:03:08;;;;;;;18.65;11.65;;;;;;;15.38;100.00;101795.50;5055011;28;20032;-50
2022/07/23 02:05:34;;;;;;;20.38;11.20;;;;;;;15.39;100.00;101799.84;5054770;28;20031;-49
2022/07/23 02:08:00;;;;;;;20.35;12.10;;;;;;;15.36;100.00;101800.22;5055707;28;20267;-50
2022/07/23 02:10:27;;;;;;;19.52;12.68;;;;;;;15.33;100.00;101795.16;5054548;28;20020;-50
2022/07/23 02:12:53;;;;;;;19.00;11.30;;;;;;;15.27;100.00;101799.38;5054720;28;20017;-49
2022/07/23 02:15:18;;;;;;;18.88;11.48;;;;;;;15.28;100.00;101798.34;5049612;28;20089;-48
2022/07/23 02:17:44;;;;;;;21.17;11.25;;;;;;;15.29;100.00;101785.72;5055457;28;20024;-49
2022/07/23 02:20:10;;;;;;;18.58;11.45;;;;;;;15.29;100.00;101793.81;5052416;28;20506;-50
2022/07/23 02:22:36;;;;;;;24.05;11.95;;;;;;;15.21;100.00;101794.66;5054540;28;20033;-51
2022/07/23 02:25:03;;;;;;;24.60;12.68;;;;;;;15.01;100.00;101788.78;5055168;28;20505;-51
2022/07/23 02:27:29;;;;;;;21.75;12.27;;;;;;;14.99;100.00;101800.72;5070610;28;20021;-52
2022/07/23 02:29:54;;;;;;;20.55;12.40;;;;;;;14.90;100.00;101792.63;5052633;28;20618;-49
2022/07/23 02:32:21;;;;;;;26.13;11.38;;;;;;;14.85;100.00;101803.06;5053343;28;20316;-49
2022/07/23 02:34:46;;;;;;;18.05;10.90;;;;;;;14.83;100.00;101796.97;5054885;28;20021;-49
2022/07/23 02:37:12;;;;;;;17.75;11.80;;;;;;;14.79;100.00;101802.88;5054101;28;20020;-48
2022/07/23 02:39:37;;;;;;;24.75;11.60;;;;;;;14.72;100.00;101800.00;5054432;28;20545;-49
2022/07/23 02:42:02;;;;;;;21.95;12.57;;;;;;;14.57;100.00;101807.00;5054852;28;20028;-48
2022/07/23 02:44:28;;;;;;;16.98;11.45;;;;;;;14.37;100.00;101804.56;5052316;28;20016;-49
2022/07/23 02:46:53;;;;;;;17.50;12.23;;;;;;;14.28;100.00;101809.06;5053007;28;20122;-48
2022/07/23 02:49:18;;;;;;;21.10;12.43;;;;;;;14.18;100.00;101805.66;5053697;28;20036;-49
2022/07/23 02:51:44;;;;;;;20.67;11.68;;;;;;;14.14;100.00;101801.63;5054844;28;20750;-48
2022/07/23 02:54:09;;;;;;;22.98;12.00;;;;;;;14.20;100.00;101808.19;5054055;28;20479;-49
2022/07/23 02:56:34;;;;;;;17.52;12.43;;;;;;;14.24;100.00;101806.84;5054537;28;20317;-50
2022/07/23 02:59:00;;;;;;;17.23;11.75;;;;;;;14.28;100.00;101808.25;5052859;28;20112;-48
2022/07/23 03:01:25;;;;;;;16.70;11.13;;;;;;;14.31;100.00;101805.22;5053664;28;20056;-48
2022/07/23 03:03:51;;;;;;;18.10;11.85;;;;;;;14.37;100.00;101807.25;5052914;28;20116;-51
2022/07/23 03:06:16;;;;;;;18.45;11.90;;;;;;;14.43;100.00;101816.53;5054443;28;20017;-49
2022/07/23 03:08:43;;;;;;;19.13;12.23;;;;;;;14.46;100.00;101808.97;5054413;28;20557;-48
2022/07/23 03:11:10;;;;;;;21.10;12.20;;;;;;;14.51;100.00;101803.94;5054139;28;20896;-49
2022/07/23 03:13:37;;;;;;;21.95;12.88;;;;;;;14.53;100.00;101812.69;5046327;28;20472;-47
2022/07/23 03:16:03;;;;;;;19.80;12.55;;;;;;;14.46;100.00;101814.34;5053928;28;20028;-49
2022/07/23 03:18:28;;;;;;;25.00;11.27;;;;;;;14.31;100.00;101824.03;5051773;28;20019;-50
2022/07/23 03:20:53;;;;;;;21.15;12.30;;;;;;;14.21;100.00;101818.78;5052797;28;20043;-50
2022/07/23 03:23:19;;;;;;;20.33;11.27;;;;;;;14.16;100.00;101819.25;5053893;28;20035;-50
2022/07/23 03:25:46;;;;;;;16.40;11.43;;;;;;;14.13;100.00;101821.44;5054486;28;20409;-48
2022/07/23 03:28:12;;;;;;;19.85;12.05;;;;;;;14.08;100.00;101808.47;5054340;28;20081;-49
2022/07/23 03:30:37;;;;;;;19.35;11.98;;;;;;;14.14;100.00;101812.38;5049810;28;20025;-48
2022/07/23 03:33:02;;;;;;;20.00;11.57;;;;;;;14.14;100.00;101823.13;5053900;28;20032;-47
2022/07/23 03:35:28;;;;;;;21.60;11.07;;;;;;;14.12;100.00;101817.03;5056081;28;20032;-48
2022/07/23 03:37:53;;;;;;;18.55;11.90;;;;;;;14.07;100.00;101822.94;5057409;28;20491;-49
2022/07/23 03:40:18;;;;;;;17.88;10.93;;;;;;;14.03;100.00;101821.53;5056959;28;20036;-50
2022/07/23 03:42:45;;;;;;;15.75;10.77;;;;;;;14.02;100.00;101817.19;5058200;28;20073;-50
2022/07/23 03:45:11;;;;;;;18.23;11.10;;;;;;;14.02;100.00;101817.19;5054203;28;20067;-50
2022/07/23 03:47:36;;;;;;;15.45;11.90;;;;;;;14.07;100.00;101816.69;5057365;28;20048;-51
2022/07/23 03:50:02;;;;;;;22.58;10.98;;;;;;;14.09;100.00;101812.84;5056366;28;20060;-50
2022/07/23 03:52:27;;;;;;;19.15;10.90;;;;;;;14.09;100.00;101826.28;5043822;28;20545;-51
2022/07/23 03:54:53;;;;;;;23.17;11.23;;;;;;;14.09;100.00;101818.22;5057392;28;20017;-47
2022/07/23 03:57:18;;;;;;;16.00;10.63;;;;;;;14.15;100.00;101814.91;5057236;28;20056;-48
2022/07/23 03:59:43;;;;;;;17.13;10.95;;;;;;;14.17;100.00;101817.41;5055622;28;20103;-49
2022/07/23 04:02:08;;;;;;;17.85;10.30;;;;;;;14.21;100.00;101826.00;5056508;28;20050;-48
2022/07/23 04:04:34;;;;;;;16.83;10.02;;;;;;;14.16;100.00;101819.25;5056611;28;20016;-49
2022/07/23 04:07:01;;;;;;;20.38;10.15;;;;;;;14.18;100.00;101827.16;5055384;28;20030;-48
2022/07/23 04:09:26;;;;;;;14.20;10.30;;;;;;;14.14;100.00;101826.66;5056731;28;20016;-50
2022/07/23 04:11:51;;;;;;;13.52;10.38;;;;;;;14.13;100.00;101826.81;5057653;28;20065;-48
2022/07/23 04:14:17;;;;;;;20.88;10.07;;;;;;;14.15;100.00;101830.16;5055325;28;20024;-46
2022/07/23 04:16:42;;;;;;;16.02;10.07;;;;;;;14.15;100.00;101833.72;5056814;28;20501;-48
2022/07/23 04:19:07;;;;;;;14.70;9.70;;;;;;;14.21;100.00;101836.75;5056620;28;20032;-49
2022/07/23 04:21:33;;;;;;;16.58;9.55;;;;;;;14.24;100.00;101829.22;5056655;28;20092;-50
2022/07/23 04:23:58;;;;;;;18.77;10.05;;;;;;;14.27;100.00;101833.41;5056488;28;20051;-50
2022/07/23 04:26:23;;;;;;;17.38;9.80;;;;;;;14.26;100.00;101829.88;5056548;28;20106;-49
2022/07/23 04:28:48;;;;;;;19.17;11.10;;;;;;;14.25;100.00;101838.94;5055146;28;20505;-50
2022/07/23 04:31:14;;;;;;;16.70;10.60;;;;;;;14.22;100.00;101841.13;5055969;28;20077;-46
2022/07/23 04:33:39;;;;;;;17.40;10.35;;;;;;;14.17;100.00;101838.91;5055773;28;20044;-47
2022/07/23 04:36:04;;;;;;;15.73;10.13;;;;;;;14.20;100.00;101835.91;5056950;28;20036;-50
2022/07/23 04:38:30;;;;;;;17.08;9.48;;;;;;;14.16;100.00;101835.38;5056430;28;20032;-51
2022/07/23 04:40:55;;;;;;;13.52;9.88;;;;;;;14.26;100.00;101850.56;5056163;28;20040;-47
2022/07/23 04:43:20;;;;;;;16.67;10.68;;;;;;;14.30;100.00;101846.53;5056606;28;20507;-47
2022/07/23 04:45:46;;;;;;;16.05;10.40;;;;;;;14.30;100.00;101857.28;5053629;28;20059;-50
2022/07/23 04:48:11;;;;;;;19.00;10.38;;;;;;;14.34;100.00;101853.25;5056369;28;20032;-49
2022/07/23 04:50:36;;;;;;;19.83;10.55;;;;;;;14.30;100.00;101846.53;5056331;28;20012;-51
2022/07/23 04:53:02;;;;;;;19.90;10.40;;;;;;;14.25;100.00;101859.59;5056464;28;20558;-48
2022/07/23 04:55:27;;;;;;;13.25;9.90;;;;;;;14.18;100.00;101862.91;5055024;28;20194;-48
2022/07/23 04:57:53;;;;;;;18.40;10.43;;;;;;;14.18;100.00;101854.88;5056063;28;20102;-50
2022/07/23 05:00:18;;;;;;;19.13;10.48;;;;;;;14.25;100.00;101860.44;5053461;28;20027;-51
2022/07/23 05:02:43;;;;;;;15.68;10.50;;;;;;;14.31;100.00;101856.28;5056649;28;20043;-48
2022/07/23 05:05:09;;;;;;;14.18;10.30;;;;;;;14.40;100.00;101857.16;5055633;28;20232;-50
2022/07/23 05:07:34;;;;;;;16.73;11.23;;;;;;;14.38;100.00;101864.56;5056098;28;20028;-46
2022/07/23 05:09:59;;;;;;;17.77;10.18;;;;;;;14.33;100.00;101860.47;5056333;28;20306;-47
2022/07/23 05:12:24;;;;;;;15.48;10.73;;;;;;;14.41;100.00;101864.19;5051895;28;20575;-51
2022/07/23 05:14:50;;;;;;;14.50;10.90;;;;;;;14.49;100.00;101859.72;5052127;28;20025;-47
2022/07/23 05:17:15;;;;;;;14.73;10.57;;;;;;;14.57;100.00;101866.13;5056350;28;20024;-46
2022/07/23 05:19:41;;;;;;;19.63;12.23;;;;;;;14.62;100.00;101859.28;5055411;28;20604;-49
2022/07/23 05:22:06;;;;;;;17.15;11.65;;;;;;;14.67;100.00;101867.72;5055782;28;20058;-50
2022/07/23 05:24:31;;;;;;;18.65;11.43;;;;;;;14.72;100.00;101869.91;5056169;28;20266;-49
2022/07/23 05:26:56;;;;;;;17.67;11.40;;;;;;;14.82;100.00;101870.63;5055393;28;20168;-51
2022/07/23 05:29:22;;;;;;;17.85;11.32;;;;;;;14.87;100.00;101879.03;5053818;28;20702;-51
2022/07/23 05:31:47;;;;;;;16.85;10.88;;;;;;;14.91;100.00;101879.53;5053915;28;20017;-47
2022/07/23 05:34:12;;;;;;;19.52;11.32;;;;;;;14.98;100.00;101879.72;5054721;28;20080;-49
2022/07/23 05:36:38;;;;;;;19.25;9.93;;;;;;;15.03;100.00;101886.28;5056046;28;20406;-46
2022/07/23 05:39:03;;;;;;;20.90;11.57;;;;;;;15.07;100.00;101881.41;5054451;28;20040;-49
2022/07/23 05:41:29;;;;;;;16.33;11.40;;;;;;;15.10;100.00;101883.78;5054368;28;20025;-46
2022/07/23 05:43:54;;;;;;;16.45;11.02;;;;;;;15.17;100.00;101890.19;5053808;28;20467;-46
2022/07/23 05:46:20;;;;;;;17.15;11.32;;;;;;;15.21;100.00;101882.63;5053687;28;20025;-46
2022/07/23 05:48:49;;;;;;;21.35;11.00;;;;;;;15.23;100.00;101889.53;5053063;28;20428;-45
2022/07/23 05:51:19;;;;;;;18.88;10.55;;;;;;;15.25;100.00;101892.88;5061167;28;20646;-47
2022/07/23 05:53:44;;;;;;;17.85;10.95;;;;;;;15.32;100.00;101897.63;5049334;28;20103;-48
2022/07/23 05:56:09;;;;;;;17.15;11.23;;;;;;;15.34;100.00;101896.41;5054583;28;20415;-47
2022/07/23 05:58:35;;;;;;;23.50;10.93;;;;;;;15.40;100.00;101893.06;5053611;28;20025;-45
2022/07/23 06:01:00;;;;;;;14.00;10.85;;;;;;;15.41;100.00;101902.84;5054208;28;20048;-47
2022/07/23 06:03:25;;;;;;;21.63;11.20;;;;;;;15.41;100.00;101897.47;5053713;28;20621;-48
2022/07/23 06:05:51;;;;;;;18.70;11.00;;;;;;;15.45;100.00;101903.34;5054871;28;20036;-48
2022/07/23 06:08:16;;;;;;;22.85;11.45;;;;;;;15.53;100.00;101907.88;5055078;28;20033;-46
2022/07/23 06:10:41;;;;;;;20.92;11.02;;;;;;;15.57;100.00;101899.31;5054696;28;20382;-47
2022/07/23 06:13:07;;;;;;;18.35;11.00;;;;;;;15.67;100.00;101901.84;5055149;28;20028;-47
2022/07/23 06:15:32;;;;;;;17.83;10.68;;;;;;;15.76;100.00;101908.91;5052687;28;20121;-47
2022/07/23 06:17:58;;;;;;;21.75;11.07;;;;;;;15.73;100.00;101897.63;5069822;28;20032;-48
2022/07/23 06:20:23;;;;;;;13.57;10.18;;;;;;;15.89;100.00;101908.41;5053780;28;20664;-48
2022/07/23 06:22:48;;;;;;;16.73;10.45;;;;;;;15.98;100.00;101911.94;5053402;28;20025;-51
2022/07/23 06:25:16;;;;;;;17.02;10.57;;;;;;;16.11;100.00;101917.66;5053319;28;20383;-49
2022/07/23 06:27:41;;;;;;;14.68;9.52;;;;;;;16.25;100.00;101908.00;5055260;28;20032;-49
2022/07/23 06:30:08;;;;;;;17.83;9.85;;;;;;;16.34;100.00;101908.81;5051694;28;20440;-48
2022/07/23 06:32:33;;;;;;;15.10;8.93;;;;;;;16.42;100.00;101912.31;5054847;28;20021;-47
2022/07/23 06:34:58;;;;;;;15.50;9.00;;;;;;;16.59;100.00;101912.28;5054358;28;20360;-48
2022/07/23 06:37:24;;;;;;;15.50;8.80;;;;;;;16.69;100.00;101915.59;5054247;28;20020;-46
2022/07/23 06:39:49;;;;;;;16.10;8.02;;;;;;;16.78;100.00;101914.56;5054393;28;20024;-49
2022/07/23 06:42:14;;;;;;;12.43;7.63;;;;;;;16.88;100.00;101919.75;5054720;28;20031;-48
2022/07/23 06:44:40;;;;;;;15.77;7.72;;;;;;;16.85;100.00;101919.28;5051595;28;20050;-46
2022/07/23 06:47:05;;;;;;;14.32;7.72;;;;;;;16.90;100.00;101912.31;5054343;28;20162;-49
2022/07/23 06:49:30;;;;;;;13.32;7.10;;;;;;;17.00;100.00;101916.66;5054960;28;20204;-47
2022/07/23 06:51:56;;;;;;;15.35;7.70;;;;;;;17.07;100.00;101921.16;5054077;28;20496;-48
2022/07/23 06:54:21;;;;;;;13.70;7.00;;;;;;;17.15;100.00;101910.31;5053406;28;20033;-48
2022/07/23 06:56:46;;;;;;;12.07;7.15;;;;;;;17.26;100.00;101925.28;5054755;28;20041;-50
2022/07/23 06:59:12;;;;;;;11.52;7.07;;;;;;;17.44;100.00;101919.56;5052305;28;20475;-49
2022/07/23 07:01:37;;;;;;;11.82;6.15;;;;;;;17.60;100.00;101921.31;5054709;28;20750;-49
2022/07/23 07:04:03;;;;;;;16.00;6.72;;;;;;;17.67;100.00;101929.53;5054086;28;20444;-47
2022/07/23 07:06:28;;;;;;;10.18;6.13;;;;;;;17.75;100.00;101926.75;5055048;28;20012;-48
2022/07/23 07:08:55;;;;;;;15.65;6.50;;;;;;;17.82;100.00;101918.75;5055895;28;20344;-47
2022/07/23 07:11:21;;;;;;;11.57;6.72;;;;;;;17.88;100.00;101918.91;5056096;28;20013;-50
2022/07/23 07:13:46;;;;;;;13.63;6.70;;;;;;;18.01;100.00;101918.28;5056334;28;20552;-48
2022/07/23 07:16:11;;;;;;;9.35;6.38;;;;;;;18.13;100.00;101929.47;5057143;28;20020;-50
2022/07/23 07:18:36;;;;;;;12.48;7.50;;;;;;;18.26;100.00;101920.72;5057493;28;20017;-49
2022/07/23 07:21:02;;;;;;;9.80;7.03;;;;;;;18.40;100.00;101911.78;5058566;28;20032;-49
2022/07/23 07:23:27;;;;;;;11.15;6.20;;;;;;;18.54;100.00;101909.25;5057181;28;20028;-49
2022/07/23 07:25:52;;;;;;;11.38;5.95;;;;;;;18.63;100.00;101911.69;5056929;28;20355;-49
2022/07/23 07:28:18;;;;;;;11.75;5.72;;;;;;;18.72;100.00;101915.13;5057559;28;20028;-51
2022/07/23 07:30:43;;;;;;;12.57;6.22;;;;;;;18.83;100.00;101919.22;5055830;28;20013;-49
2022/07/23 07:33:08;;;;;;;13.50;6.40;;;;;;;18.97;100.00;101925.63;5057094;28;20383;-50
2022/07/23 07:35:34;;;;;;;12.43;5.93;;;;;;;19.06;99.53;101929.06;5057608;28;20052;-48
2022/07/23 07:38:00;;;;;;;9.35;5.75;;;;;;;19.18;99.17;101939.22;5058138;28;20020;-47
2022/07/23 07:40:26;;;;;;;9.35;5.72;;;;;;;19.11;96.47;101935.59;5057026;28;20029;-50
2022/07/23 07:42:53;;;;;;;13.90;5.25;;;;;;;19.14;97.94;101943.31;5056612;28;20012;-48
2022/07/23 07:45:23;;;;;;;10.57;5.45;;;;;;;19.29;99.66;101932.44;5054501;28;20039;-47
2022/07/23 07:47:49;;;;;;;10.73;5.60;;;;;;;19.52;98.65;101931.44;5057608;28;20016;-48
2022/07/23 07:50:14;;;;;;;10.43;5.20;;;;;;;19.67;96.40;101925.91;5057155;28;20467;-49
2022/07/23 07:52:40;;;;;;;8.82;5.43;;;;;;;19.72;95.31;101931.59;5057247;28;20016;-51
2022/07/23 07:55:08;;;;;;;9.50;5.78;;;;;;;19.63;92.22;101933.59;5056815;28;20032;-49
2022/07/23 07:57:34;;;;;;;11.73;5.40;;;;;;;19.85;95.71;101930.91;5056009;28;20053;-48
2022/07/23 07:59:59;;;;;;;9.45;4.97;;;;;;;19.80;90.82;101933.38;5055457;28;20020;-49
2022/07/23 08:02:25;;;;;;;11.18;4.68;;;;;;;19.78;91.30;101933.56;5057117;28;20328;-49
2022/07/23 08:04:50;;;;;;;9.07;4.43;;;;;;;19.90;90.41;101933.88;5057174;28;20297;-50
2022/07/23 08:07:16;;;;;;;10.65;4.60;;;;;;;19.92;92.25;101942.63;5055854;28;20301;-50
2022/07/23 08:09:41;;;;;;;8.75;4.28;;;;;;;20.05;89.13;101942.75;5056713;28;20371;-49
2022/07/23 08:12:07;;;;;;;8.45;4.57;;;;;;;20.13;86.39;101949.91;5057074;28;20414;-50
2022/07/23 08:14:32;;;;;;;7.53;4.47;;;;;;;20.24;87.10;101943.09;5053115;28;20677;-51
2022/07/23 08:16:58;;;;;;;11.85;4.82;;;;;;;20.23;87.85;101944.09;5056786;28;20424;-51
2022/07/23 08:19:23;;;;;;;10.15;4.90;;;;;;;20.30;86.41;101942.31;5055001;28;20398;-48
2022/07/23 08:21:48;;;;;;;7.82;4.28;;;;;;;20.56;91.84;101948.91;5055941;28;20298;-48
2022/07/23 08:24:14;;;;;;;10.30;4.57;;;;;;;20.67;89.12;101945.66;5054808;28;20024;-51
2022/07/23 08:26:39;;;;;;;10.32;4.93;;;;;;;20.79;87.78;101954.06;5056442;28;20074;-48
2022/07/23 08:29:04;;;;;;;12.25;4.88;;;;;;;20.66;84.31;101952.97;5054323;28;20012;-49
2022/07/23 08:31:32;;;;;;;13.45;4.60;;;;;;;20.58;84.84;101957.69;5054787;28;20345;-47
2022/07/23 08:33:58;;;;;;;8.73;5.05;;;;;;;20.58;83.70;101971.25;5055455;28;20933;-48
2022/07/23 08:36:23;;;;;;;7.82;5.22;;;;;;;20.70;83.97;101961.53;5071299;28;20391;-47
2022/07/23 08:38:48;;;;;;;6.93;4.93;;;;;;;20.77;86.01;101967.00;5055525;28;20104;-46
2022/07/23 08:41:14;;;;;;;7.70;4.80;;;;;;;20.73;87.90;101966.56;5055734;28;20028;-48
2022/07/23 08:43:40;;;;;;;10.13;4.72;;;;;;;20.75;85.03;101972.63;5054104;28;20480;-47
2022/07/23 08:46:06;;;;;;;8.95;4.90;;;;;;;20.95;87.71;101971.91;5053872;28;20138;-46
2022/07/23 08:48:34;;;;;;;13.45;5.68;;;;;;;21.22;86.69;101975.53;5055623;28;20024;-47
2022/07/23 08:51:01;;;;;;;9.57;5.05;;;;;;;21.40;81.15;101978.53;5055785;28;20024;-47
2022/07/23 08:53:28;;;;;;;13.82;5.10;;;;;;;21.56;81.25;101974.59;5055379;28;20269;-48
2022/07/23 08:55:56;;;;;;;8.10;4.75;;;;;;;21.68;77.85;101984.88;5055254;28;20090;-48
2022/07/23 08:58:22;;;;;;;15.27;5.20;;;;;;;21.76;79.99;101982.78;5054690;28;20060;-47
2022/07/23 09:00:49;;;;;;;7.43;4.55;;;;;;;21.81;80.91;101971.28;5052789;28;20047;-48
2022/07/23 09:03:26;;;;;;;10.32;4.95;;;;;;;21.96;81.34;101971.91;5055238;28;20028;-49
2022/07/23 09:05:52;;;;;;;5.97;4.63;;;;;;;22.08;79.84;101974.84;5055499;28;20032;-49
2022/07/23 09:08:38;;;;;;;10.60;5.07;;;;;;;22.21;79.30;101963.09;5055562;28;20028;-47
2022/07/23 09:11:05;;;;;;;10.00;5.40;;;;;;;22.19;75.35;101967.09;5069664;28;20063;-51
2022/07/23 09:13:53;;;;;;;11.68;5.25;;;;;;;22.34;79.16;101952.22;5051022;28;20036;-50
2022/07/23 09:16:24;;;;;;;12.30;5.32;;;;;;;22.38;75.28;101955.34;5054025;28;20499;-48
2022/07/23 09:18:57;;;;;;;16.63;5.50;;;;;;;22.47;76.71;101951.38;5054712;28;20028;-47
2022/07/23 09:21:24;;;;;;;12.90;5.32;;;;;;;22.61;77.67;101963.03;5055129;28;20115;-51
2022/07/23 09:23:55;;;;;;;12.80;5.30;;;;;;;22.63;76.14;101949.22;5055032;28;20348;-51
2022/07/23 09:26:31;;;;;;;14.52;5.20;;;;;;;22.81;77.68;101956.69;5054804;28;20237;-49
2022/07/23 09:28:56;;;;;;;11.70;5.05;;;;;;;22.81;72.06;101956.69;5052852;28;20031;-50
2022/07/23 09:31:23;;;;;;;9.65;4.45;;;;;;;22.81;70.84;101951.22;5053231;28;20036;-50
2022/07/23 09:33:49;;;;;;;13.20;5.40;;;;;;;22.85;73.50;101952.50;5054436;28;20715;-51
2022/07/23 09:36:15;;;;;;;7.25;5.18;;;;;;;22.79;73.45;101954.16;5054982;28;20085;-49
2022/07/23 09:38:50;;;;;;;8.52;5.30;;;;;;;22.89;77.64;101953.72;5054399;28;20082;-49
2022/07/23 09:41:16;;;;;;;11.93;5.10;;;;;;;22.81;73.04;101954.81;5054907;28;20039;-50
2022/07/23 09:43:41;;;;;;;13.60;5.57;;;;;;;22.69;72.37;101959.25;5053292;28;20037;-47
2022/07/23 09:46:24;;;;;;;9.27;5.03;;;;;;;22.83;75.27;101960.88;5052862;28;20017;-47
2022/07/23 09:48:51;;;;;;;9.05;4.97;;;;;;;23.05;75.32;101966.84;5054350;28;20032;-48
2022/07/23 09:54:01;;;;;;;9.93;5.07;;;;;;;23.50;73.72;101967.88;5049852;28;20071;-50
2022/07/23 09:56:27;;;;;;;8.15;5.05;;;;;;;23.54;70.36;101969.09;5054115;28;20506;-50
2022/07/23 09:59:11;;;;;;;8.65;5.32;;;;;;;23.77;70.81;101979.44;5051610;28;20094;-49
2022/07/23 10:01:38;;;;;;;8.88;5.95;;;;;;;23.63;68.34;101971.34;5054796;28;20056;-48
2022/07/23 10:04:05;;;;;;;11.52;5.30;;;;;;;23.66;68.15;101970.09;5053731;28;20111;-50
2022/07/23 10:06:31;;;;;;;8.50;5.20;;;;;;;23.65;71.63;101968.41;5051039;28;20095;-50
2022/07/23 10:08:58;;;;;;;8.68;5.40;;;;;;;23.51;68.31;101964.13;5054277;28;20029;-48
2022/07/23 10:11:24;;;;;;;7.68;5.38;;;;;;;23.49;69.86;101963.47;5054029;28;20073;-48
2022/07/23 10:13:57;;;;;;;6.93;5.20;;;;;;;23.63;71.16;101968.63;5052482;28;20064;-49
2022/07/23 10:16:23;;;;;;;12.55;6.20;;;;;;;23.88;68.85;101970.56;5054368;28;20277;-50
2022/07/23 10:18:49;;;;;;;10.75;5.72;;;;;;;23.79;69.18;101969.13;5053490;28;20557;-47
2022/07/23 10:21:41;;;;;;;12.57;5.82;;;;;;;23.62;70.88;101963.38;5054211;28;20418;-50
2022/07/23 10:24:20;;;;;;;13.82;5.30;;;;;;;23.80;72.97;101965.34;5052052;28;20028;-49
2022/07/23 10:26:59;;;;;;;9.30;5.60;;;;;;;23.63;67.06;101968.63;5053761;28;20032;-48
2022/07/23 10:29:48;;;;;;;10.70;5.20;;;;;;;23.78;71.44;101965.56;5051859;28;20472;-50
2022/07/23 10:32:43;;;;;;;7.68;5.20;;;;;;;23.76;67.58;101961.38;5054271;28;20584;-48
2022/07/23 10:35:12;;;;;;;9.07;4.50;;;;;;;23.87;66.96;101970.78;5053725;28;20051;-48
2022/07/23 10:37:41;;;;;;;10.82;4.90;;;;;;;23.62;63.24;101968.84;5055225;28;20032;-49
2022/07/23 10:40:14;;;;;;;9.68;5.47;;;;;;;23.57;63.77;101971.41;5051152;28;20027;-50
2022/07/23 10:42:41;;;;;;;10.05;4.68;;;;;;;23.86;62.54;101971.84;5040516;28;20021;-51
2022/07/23 10:45:23;;;;;;;6.63;3.80;;;;;;;24.13;60.96;101973.28;5055351;28;20025;-49
2022/07/23 10:47:50;;;;;;;4.50;3.20;;;;;;;24.42;63.33;101976.34;5058403;28;20032;-49
2022/07/23 10:50:16;;;;;;;10.93;4.03;;;;;;;24.39;59.59;101974.91;5057773;28;20028;-49
2022/07/23 10:53:18;;;;;;;8.65;3.80;;;;;;;24.21;62.04;101963.97;5058098;28;20436;-47
2022/07/23 10:55:46;;;;;;;4.88;3.30;;;;;;;24.53;60.29;101967.41;5057810;28;20026;-50
2022/07/23 10:58:18;;;;;;;7.50;4.07;;;;;;;24.85;61.60;101972.75;5057490;28;20060;-48
2022/07/23 11:00:44;;;;;;;5.65;3.60;;;;;;;24.91;58.72;101963.63;5054998;28;20033;-51
2022/07/23 11:03:32;;;;;;;5.20;4.10;;;;;;;24.97;58.45;101971.94;5057890;28;20392;-49
2022/07/23 11:05:57;;;;;;;6.80;4.65;;;;;;;25.30;66.95;101969.63;5057926;28;20028;-51
2022/07/23 11:08:23;;;;;;;7.50;5.25;;;;;;;25.48;61.34;101965.19;5057690;28;20024;-48
2022/07/23 11:10:52;;;;;;;7.53;4.55;;;;;;;25.51;59.77;101972.94;5057169;28;20021;-51